Terminal Aerodrome Forecast
Issued by NWS

Home | Current Version | Previous Version | Text Only | Print | Product List | Glossary On
Versions: 1 2 3 4 5 6 7 8 9 10 11 12 13 14 15 16 17 18 19 20 21 22 23
000
FTUS44 KHGX 241129
TAFUTS
TAF
KUTS 241129Z 2412/2512 VRB07G15KT 5SM -TSRA SCT004 OVC010CB
     FM241400 09005KT P6SM VCTS BKN025CB BKN250
     FM241800 04005KT P6SM VCTS BKN040CB BKN250
     FM250300 07005KT P6SM BKN250
     FM250900 VRB03KT 6SM BR SCT007 BKN020=

USA.gov is the U.S. government's official web portal to all federal, state and local government web resources and services.